Time;durP1;ratioP1;P1;durP2;ratioP2;P2;SDS_P1;SDS_P2;PMS_P1;PMS_P2;Temp;Humidity;BMP_temperature;BMP_pressure;BME280_temperature;BME280_humidity;BME280_pressure;Samples;Min_cycle;Max_cycle;Signal;HPM_P1;HPM_P2
2023/02/07 00:00:12;;;;;;;;;;;;;;;3.63;54.45;102746.28;5038067;28;19921;-77
2023/02/07 00:03:05;;;;;;;;;;;;;;;3.70;53.94;102738.16;5028793;28;19921;-77
2023/02/07 00:05:54;;;;;;;;;;;;;;;3.72;54.14;102733.34;5038140;28;20401;-77
2023/02/07 00:08:46;;;;;;;;;;;;;;;3.79;53.79;102734.97;5036067;28;19917;-78
2023/02/07 00:11:39;;;;;;;;;;;;;;;3.54;54.03;102734.13;5039857;28;20385;-78
2023/02/07 00:14:30;;;;;;;;;;;;;;;3.51;54.58;102739.09;5036427;28;19917;-77
2023/02/07 00:17:23;;;;;;;;;;;;;;;3.60;54.05;102740.50;5037499;28;19921;-77
2023/02/07 00:20:14;;;;;;;;;;;;;;;3.75;53.67;102728.38;5041566;28;19917;-77
2023/02/07 00:23:03;;;;;;;;;;;;;;;3.79;53.46;102740.34;5033685;28;19917;-78
2023/02/07 00:25:55;;;;;;;;;;;;;;;3.56;53.97;102737.41;5037637;28;19917;-77
2023/02/07 00:28:47;;;;;;;;;;;;;;;3.37;54.54;102746.47;5044054;28;19917;-77
2023/02/07 00:31:39;;;;;;;;;;;;;;;3.30;54.62;102745.69;5029777;28;19917;-77
2023/02/07 00:34:30;;;;;;;;;;;;;;;3.76;54.03;102734.56;5042866;28;19917;-78
2023/02/07 00:37:22;;;;;;;;;;;;;;;4.25;52.84;102739.91;5038625;28;19921;-78
2023/02/07 00:40:14;;;;;;;;;;;;;;;4.10;52.35;102742.13;5039441;28;19917;-78
2023/02/07 00:43:06;;;;;;;;;;;;;;;3.78;53.13;102745.94;5027339;28;19917;-78
2023/02/07 00:45:59;;;;;;;;;;;;;;;3.54;53.99;102746.75;5031342;28;19917;-78
2023/02/07 00:48:51;;;;;;;;;;;;;;;3.61;53.53;102764.47;5042203;28;19917;-77
2023/02/07 00:51:42;;;;;;;;;;;;;;;3.73;53.33;102764.59;5051970;28;19917;-77
2023/02/07 00:54:35;;;;;;;;;;;;;;;3.50;53.44;102764.38;5037207;28;19917;-77
2023/02/07 00:57:25;;;;;;;;;;;;;;;3.81;53.10;102769.69;5042564;28;19921;-77
2023/02/07 01:00:14;;;;;;;;;;;;;;;3.68;53.99;102776.03;5039647;28;19918;-77
2023/02/07 01:03:09;;;;;;;;;;;;;;;3.96;51.38;102774.78;5024477;28;19917;-77
2023/02/07 01:06:01;;;;;;;;;;;;;;;3.74;51.84;102771.63;5040484;28;19917;-78
2023/02/07 01:08:56;;;;;;;;;;;;;;;4.07;49.74;102782.94;5016308;28;19917;-78
2023/02/07 01:11:49;;;;;;;;;;;;;;;3.75;49.85;102778.69;5030365;28;19921;-78
2023/02/07 01:14:41;;;;;;;;;;;;;;;3.74;49.43;102783.22;5035314;28;19921;-77
2023/02/07 01:17:31;;;;;;;;;;;;;;;3.53;48.94;102777.38;5039907;28;19921;-78
2023/02/07 01:20:23;;;;;;;;;;;;;;;3.33;48.53;102781.03;5028247;28;19917;-78
2023/02/07 01:23:14;;;;;;;;;;;;;;;3.51;48.38;102784.81;5019706;28;19917;-78
2023/02/07 01:26:06;;;;;;;;;;;;;;;3.79;46.38;102787.94;5042075;28;19918;-77
2023/02/07 01:28:58;;;;;;;;;;;;;;;4.08;45.19;102789.16;5034000;28;19917;-78
2023/02/07 01:31:50;;;;;;;;;;;;;;;4.02;44.96;102788.16;5030924;28;19917;-78
2023/02/07 01:34:42;;;;;;;;;;;;;;;4.41;43.38;102788.84;5036412;28;19917;-78
2023/02/07 01:37:34;;;;;;;;;;;;;;;4.14;43.10;102794.47;5038892;28;20378;-78
2023/02/07 01:40:26;;;;;;;;;;;;;;;4.02;43.36;102788.16;5038031;28;19925;-78
2023/02/07 01:43:18;;;;;;;;;;;;;;;4.25;42.22;102782.16;5043625;28;19917;-78
2023/02/07 01:46:10;;;;;;;;;;;;;;;4.13;42.43;102776.66;5030226;28;19917;-78
2023/02/07 01:49:03;;;;;;;;;;;;;;;4.00;42.05;102778.66;5043337;28;20429;-78
2023/02/07 01:51:56;;;;;;;;;;;;;;;3.72;42.08;102784.47;5050889;28;19917;-77
2023/02/07 01:54:51;;;;;;;;;;;;;;;3.78;41.85;102778.22;5031662;28;19917;-78
2023/02/07 01:57:44;;;;;;;;;;;;;;;3.58;41.62;102782.94;5042559;28;19921;-78
2023/02/07 02:00:36;;;;;;;;;;;;;;;3.44;41.82;102782.19;5040149;28;19917;-78
2023/02/07 02:03:28;;;;;;;;;;;;;;;3.44;41.79;102776.81;5038185;28;19917;-78
2023/02/07 02:06:21;;;;;;;;;;;;;;;3.33;42.27;102775.66;5040994;28;19917;-78
2023/02/07 02:09:15;;;;;;;;;;;;;;;3.25;41.00;102785.84;5047039;28;19917;-78
2023/02/07 02:12:24;;;;;;;;;;;;;;;3.02;41.37;102789.06;5027009;28;19917;-78
2023/02/07 02:15:22;;;;;;;;;;;;;;;3.04;41.47;102786.97;5033638;28;19917;-78
2023/02/07 02:18:21;;;;;;;;;;;;;;;2.99;40.59;102789.50;5023228;28;19921;-79
2023/02/07 02:21:29;;;;;;;;;;;;;;;2.96;40.56;102781.84;5022259;28;19917;-78
2023/02/07 02:24:31;;;;;;;;;;;;;;;3.06;40.83;102790.25;5019298;28;19917;-79
2023/02/07 02:27:33;;;;;;;;;;;;;;;2.91;40.27;102795.09;5037630;28;19917;-78
2023/02/07 02:30:37;;;;;;;;;;;;;;;2.72;40.66;102796.81;5036155;28;20305;-77
2023/02/07 02:33:36;;;;;;;;;;;;;;;2.67;40.39;102799.31;5045337;28;19917;-78
2023/02/07 02:36:44;;;;;;;;;;;;;;;2.81;41.05;102805.47;5033308;28;19917;-79
2023/02/07 02:39:38;;;;;;;;;;;;;;;2.97;40.89;102808.50;5037730;28;19921;-78
2023/02/07 02:42:54;;;;;;;;;;;;;;;2.93;41.25;102804.59;5018924;28;20301;-78
2023/02/07 02:45:47;;;;;;;;;;;;;;;3.07;41.30;102788.41;5016220;28;19917;-78
2023/02/07 02:48:39;;;;;;;;;;;;;;;3.17;41.42;102800.34;5037078;28;19942;-78
2023/02/07 02:51:34;;;;;;;;;;;;;;;3.15;41.09;102788.97;5053167;28;19920;-78
2023/02/07 02:54:33;;;;;;;;;;;;;;;3.15;41.36;102797.03;5023772;28;19917;-78
2023/02/07 02:57:43;;;;;;;;;;;;;;;3.12;40.99;102804.72;5021967;28;19917;-78
2023/02/07 03:00:43;;;;;;;;;;;;;;;3.03;41.44;102795.25;5023813;28;19917;-79
2023/02/07 03:03:52;;;;;;;;;;;;;;;2.95;41.59;102796.31;5021378;28;19917;-78
2023/02/07 03:06:45;;;;;;;;;;;;;;;3.29;40.91;102798.63;5023924;28;19917;-78
2023/02/07 03:09:41;;;;;;;;;;;;;;;3.30;40.70;102800.25;5021075;28;20297;-77
2023/02/07 03:12:37;;;;;;;;;;;;;;;2.96;41.14;102803.34;5042383;28;19936;-77
2023/02/07 03:15:29;;;;;;;;;;;;;;;2.88;41.37;102808.97;5032338;28;19917;-78
2023/02/07 03:18:23;;;;;;;;;;;;;;;2.66;41.43;102815.63;5035028;28;19921;-78
2023/02/07 03:21:31;;;;;;;;;;;;;;;2.81;41.14;102826.94;5040076;28;19917;-79
2023/02/07 03:24:23;;;;;;;;;;;;;;;3.49;39.91;102822.72;5033012;28;19917;-80
2023/02/07 03:27:16;;;;;;;;;;;;;;;3.59;39.71;102827.63;5023782;28;19917;-79
2023/02/07 03:30:09;;;;;;;;;;;;;;;2.76;40.77;102824.91;5016783;28;19918;-78
2023/02/07 03:33:02;;;;;;;;;;;;;;;2.62;41.67;102827.84;5025631;28;19917;-79
2023/02/07 03:35:56;;;;;;;;;;;;;;;2.26;42.13;102833.66;5054047;28;19917;-79
2023/02/07 03:38:48;;;;;;;;;;;;;;;2.15;42.31;102843.16;5038180;28;19921;-79
2023/02/07 03:41:45;;;;;;;;;;;;;;;2.27;42.46;102836.16;5043301;28;19917;-79
2023/02/07 03:44:35;;;;;;;;;;;;;;;2.78;41.70;102847.00;5040787;28;19917;-79
2023/02/07 03:47:27;;;;;;;;;;;;;;;3.03;41.19;102847.13;5037448;28;19917;-79
2023/02/07 03:50:15;;;;;;;;;;;;;;;3.24;40.57;102848.72;5043385;28;19917;-79
2023/02/07 03:53:07;;;;;;;;;;;;;;;3.41;40.08;102845.28;5046330;28;20394;-79
2023/02/07 03:55:59;;;;;;;;;;;;;;;3.75;39.72;102857.53;5053499;28;19917;-79
2023/02/07 03:58:48;;;;;;;;;;;;;;;4.11;39.23;102851.47;5051772;28;20317;-79
2023/02/07 04:01:40;;;;;;;;;;;;;;;3.91;39.54;102852.66;5043517;28;19917;-79
2023/02/07 04:04:32;;;;;;;;;;;;;;;3.57;40.23;102856.59;5041254;28;19921;-80
2023/02/07 04:07:24;;;;;;;;;;;;;;;3.61;39.88;102857.78;5044312;28;19917;-79
2023/02/07 04:10:16;;;;;;;;;;;;;;;3.96;39.36;102861.72;5042505;28;19917;-80
2023/02/07 04:13:08;;;;;;;;;;;;;;;4.11;38.78;102864.09;5047996;28;19920;-78
2023/02/07 04:16:01;;;;;;;;;;;;;;;3.86;39.41;102866.75;5050235;28;19917;-79
2023/02/07 04:18:50;;;;;;;;;;;;;;;3.85;39.58;102862.44;5040898;28;19921;-80
2023/02/07 04:21:42;;;;;;;;;;;;;;;3.70;38.95;102878.88;5045090;28;19921;-79
2023/02/07 04:24:34;;;;;;;;;;;;;;;3.85;39.05;102883.94;5043182;28;19917;-79
2023/02/07 04:27:26;;;;;;;;;;;;;;;3.92;38.32;102876.66;5039822;28;20381;-80
2023/02/07 04:30:18;;;;;;;;;;;;;;;4.18;37.58;102889.09;5037299;28;19921;-79
2023/02/07 04:33:11;;;;;;;;;;;;;;;3.96;38.44;102885.97;5041594;28;20667;-79
2023/02/07 04:36:04;;;;;;;;;;;;;;;3.88;38.81;102888.91;5044873;28;19917;-79
2023/02/07 04:38:56;;;;;;;;;;;;;;;4.16;37.78;102900.09;5048132;28;19921;-79
2023/02/07 04:41:46;;;;;;;;;;;;;;;4.25;37.32;102895.25;5032800;28;20298;-79
2023/02/07 04:44:36;;;;;;;;;;;;;;;4.34;37.23;102887.72;5044671;28;19917;-79
2023/02/07 04:47:27;;;;;;;;;;;;;;;4.51;37.02;102895.03;5042390;28;20398;-79
2023/02/07 04:50:20;;;;;;;;;;;;;;;4.53;36.52;102892.09;5040222;28;19917;-79
2023/02/07 04:53:12;;;;;;;;;;;;;;;4.60;36.43;102890.19;5042847;28;19921;-79
2023/02/07 04:56:04;;;;;;;;;;;;;;;4.33;37.29;102889.59;5047442;28;19917;-79
2023/02/07 04:58:56;;;;;;;;;;;;;;;4.53;36.79;102892.09;5033047;28;19921;-79
2023/02/07 05:01:48;;;;;;;;;;;;;;;4.63;36.63;102895.94;5052473;28;19917;-79
2023/02/07 05:04:38;;;;;;;;;;;;;;;4.69;35.94;102894.22;5041709;28;19917;-79
2023/02/07 05:07:30;;;;;;;;;;;;;;;4.88;35.84;102906.69;5044095;28;19918;-79
2023/02/07 05:10:19;;;;;;;;;;;;;;;4.58;36.89;102919.19;5041478;28;19917;-79
2023/02/07 05:13:11;;;;;;;;;;;;;;;4.80;36.22;102919.63;5041118;28;19917;-79
2023/02/07 05:16:03;;;;;;;;;;;;;;;4.78;36.43;102930.63;5042000;28;19916;-79
2023/02/07 05:18:55;;;;;;;;;;;;;;;4.30;37.27;102927.75;5043484;28;19921;-79
2023/02/07 05:21:47;;;;;;;;;;;;;;;4.21;37.79;102934.44;5042654;28;19917;-79
2023/02/07 05:24:39;;;;;;;;;;;;;;;4.36;37.67;102936.81;5042889;28;19917;-79
2023/02/07 05:27:30;;;;;;;;;;;;;;;4.32;37.31;102932.91;5040890;28;19925;-79
2023/02/07 05:30:22;;;;;;;;;;;;;;;4.26;38.22;102934.63;5043690;28;19921;-79
2023/02/07 05:33:12;;;;;;;;;;;;;;;3.60;39.38;102950.31;5041421;28;19917;-79
2023/02/07 05:36:03;;;;;;;;;;;;;;;3.77;38.76;102957.66;5044398;28;19917;-79
2023/02/07 05:38:53;;;;;;;;;;;;;;;3.87;38.53;102960.72;5038028;28;19921;-79
2023/02/07 05:41:45;;;;;;;;;;;;;;;3.40;41.34;102967.34;5044902;28;19921;-78
2023/02/07 05:44:37;;;;;;;;;;;;;;;3.18;40.64;102971.34;5035543;28;19917;-79
2023/02/07 05:47:29;;;;;;;;;;;;;;;3.02;42.57;102971.78;5036762;28;19917;-80
2023/02/07 05:50:21;;;;;;;;;;;;;;;2.95;42.21;102984.41;5036317;28;19917;-80
2023/02/07 05:53:23;;;;;;;;;;;;;;;2.92;42.56;102987.50;5040494;28;19917;-81
2023/02/07 05:56:15;;;;;;;;;;;;;;;2.97;43.64;102988.53;5031694;28;19921;-79
2023/02/07 05:59:07;;;;;;;;;;;;;;;2.51;44.03;102972.44;5044850;28;19921;-80
2023/02/07 06:01:59;;;;;;;;;;;;;;;2.61;43.41;102976.56;5040282;28;20317;-80
2023/02/07 06:04:51;;;;;;;;;;;;;;;2.97;42.43;102980.47;5035284;28;19917;-81
2023/02/07 06:07:43;;;;;;;;;;;;;;;2.84;42.04;102990.44;5043240;28;19917;-81
2023/02/07 06:10:35;;;;;;;;;;;;;;;3.19;41.76;102993.69;5041374;28;19917;-81
2023/02/07 06:13:27;;;;;;;;;;;;;;;3.31;41.42;102994.66;5039246;28;19917;-81
2023/02/07 06:16:19;;;;;;;;;;;;;;;3.25;42.84;103001.72;5042510;28;19917;-81
2023/02/07 06:19:11;;;;;;;;;;;;;;;3.32;41.78;103002.53;5048361;28;19921;-81
2023/02/07 06:22:03;;;;;;;;;;;;;;;3.41;40.96;102998.56;5042362;28;20309;-81
2023/02/07 06:24:55;;;;;;;;;;;;;;;3.17;41.58;102993.88;5035972;28;20289;-80
2023/02/07 06:27:45;;;;;;;;;;;;;;;3.34;41.77;103003.16;5040248;28;19917;-80
2023/02/07 06:30:37;;;;;;;;;;;;;;;3.14;41.64;103002.38;5043940;28;19921;-80
2023/02/07 06:33:29;;;;;;;;;;;;;;;3.07;44.37;103004.25;5042680;28;19917;-80
2023/02/07 06:36:21;;;;;;;;;;;;;;;3.47;43.30;103004.97;5039851;28;20305;-80
2023/02/07 06:39:13;;;;;;;;;;;;;;;3.13;41.75;103006.09;5053171;28;19925;-80
2023/02/07 06:42:05;;;;;;;;;;;;;;;2.93;42.53;103016.03;5039651;28;19917;-80
2023/02/07 06:44:57;;;;;;;;;;;;;;;3.35;41.56;103006.69;5030096;28;20350;-80
2023/02/07 06:47:47;;;;;;;;;;;;;;;2.95;41.69;103006.72;5032142;28;19918;-79
2023/02/07 06:50:36;;;;;;;;;;;;;;;2.75;42.63;103013.13;5036586;28;19916;-79
2023/02/07 06:53:28;;;;;;;;;;;;;;;2.81;43.04;103004.25;5029516;28;20457;-80
2023/02/07 06:56:21;;;;;;;;;;;;;;;2.95;42.45;103006.72;5036532;28;19917;-78
2023/02/07 06:59:11;;;;;;;;;;;;;;;2.76;43.57;103006.72;5040006;28;19925;-80
2023/02/07 07:02:03;;;;;;;;;;;;;;;3.16;42.61;103011.03;5047269;28;20393;-79
2023/02/07 07:04:52;;;;;;;;;;;;;;;2.75;42.95;103010.44;5032680;28;20301;-79
2023/02/07 07:07:44;;;;;;;;;;;;;;;2.80;43.19;103019.53;5037127;28;19917;-79
2023/02/07 07:10:36;;;;;;;;;;;;;;;2.74;43.26;103020.41;5039610;28;19917;-79
2023/02/07 07:13:28;;;;;;;;;;;;;;;2.70;44.27;103019.13;5038945;28;20294;-79
2023/02/07 07:16:20;;;;;;;;;;;;;;;2.67;44.68;103024.09;5037178;28;19921;-79
2023/02/07 07:19:11;;;;;;;;;;;;;;;2.70;47.28;103031.72;5052810;28;20369;-84
2023/02/07 07:22:03;;;;;;;;;;;;;;;3.30;44.94;103047.63;5034808;28;20309;-84
2023/02/07 07:24:55;;;;;;;;;;;;;;;3.36;46.21;103049.47;5043582;28;19917;-81
2023/02/07 07:27:47;;;;;;;;;;;;;;;2.61;46.12;103049.09;5030088;28;19917;-82
2023/02/07 07:30:37;;;;;;;;;;;;;;;2.62;45.69;103050.75;5024682;28;19918;-80
2023/02/07 07:33:28;;;;;;;;;;;;;;;2.44;46.30;103046.78;5035301;28;19917;-81
2023/02/07 07:36:18;;;;;;;;;;;;;;;2.19;48.07;103040.31;5031791;28;19917;-81
2023/02/07 07:39:10;;;;;;;;;;;;;;;2.43;47.43;103034.41;5033550;28;19921;-84
2023/02/07 07:42:00;;;;;;;;;;;;;;;2.73;47.47;103036.72;5033776;28;19917;-81
2023/02/07 07:45:09;;;;;;;;;;;;;;;2.74;46.50;103038.38;5018915;28;19917;-81
2023/02/07 07:48:01;;;;;;;;;;;;;;;2.83;46.70;103040.66;5022240;28;19917;-80
2023/02/07 07:50:53;;;;;;;;;;;;;;;2.95;47.07;103043.50;5029851;28;19921;-80
2023/02/07 07:53:45;;;;;;;;;;;;;;;2.92;47.47;103055.53;5026318;28;19921;-80
2023/02/07 07:56:37;;;;;;;;;;;;;;;3.01;47.73;103048.91;5036120;28;20332;-80
2023/02/07 07:59:29;;;;;;;;;;;;;;;3.01;48.19;103048.91;5030547;28;19921;-80
2023/02/07 08:02:21;;;;;;;;;;;;;;;3.34;47.41;103046.19;5036689;28;19917;-81
2023/02/07 08:05:13;;;;;;;;;;;;;;;3.56;46.37;103045.91;5042630;28;19921;-81
2023/02/07 08:08:06;;;;;;;;;;;;;;;3.55;46.44;103046.97;5039830;28;19917;-80
2023/02/07 08:11:01;;;;;;;;;;;;;;;3.07;47.44;103041.88;5046296;28;19917;-80
2023/02/07 08:13:53;;;;;;;;;;;;;;;3.24;47.42;103044.97;5031688;28;19921;-81
2023/02/07 08:16:45;;;;;;;;;;;;;;;3.59;45.88;103035.56;5034621;28;19925;-78
2023/02/07 08:19:32;;;;;;;;;;;;;;;3.54;45.16;103038.06;5036119;28;19921;-82
2023/02/07 08:22:21;;;;;;;;;;;;;;;3.65;43.67;103036.59;5036508;28;19921;-81
2023/02/07 08:25:13;;;;;;;;;;;;;;;3.72;43.28;103021.22;5039421;28;19917;-83
2023/02/07 08:28:05;;;;;;;;;;;;;;;3.20;44.20;103014.16;5042283;28;20313;-81
2023/02/07 08:31:00;;;;;;;;;;;;;;;2.67;43.95;103007.97;5036073;28;19918;-82
2023/02/07 08:33:52;;;;;;;;;;;;;;;2.58;42.79;103005.50;5036647;28;19917;-82
2023/02/07 08:36:44;;;;;;;;;;;;;;;3.51;42.66;103010.75;5039731;28;19921;-82
2023/02/07 08:39:34;;;;;;;;;;;;;;;3.96;41.04;103012.47;5038425;28;19921;-81
2023/02/07 08:42:26;;;;;;;;;;;;;;;3.36;41.21;103008.31;5042758;28;19917;-82
2023/02/07 08:45:16;;;;;;;;;;;;;;;2.76;42.06;103001.38;5046720;28;19924;-80
2023/02/07 08:48:08;;;;;;;;;;;;;;;3.12;41.73;103012.50;5040092;28;20381;-81
2023/02/07 08:51:04;;;;;;;;;;;;;;;3.15;42.04;103006.69;5043485;28;19917;-81
2023/02/07 08:53:56;;;;;;;;;;;;;;;3.11;41.54;103008.16;5030974;28;19917;-82
2023/02/07 08:56:48;;;;;;;;;;;;;;;3.55;42.03;103003.94;5042291;28;19917;-82
2023/02/07 08:59:40;;;;;;;;;;;;;;;3.97;41.15;103006.00;5039210;28;19921;-82
2023/02/07 09:02:32;;;;;;;;;;;;;;;4.18;40.11;103007.56;5038129;28;19917;-81
2023/02/07 09:05:24;;;;;;;;;;;;;;;4.46;39.22;103009.88;5036691;28;20378;-82
2023/02/07 09:08:17;;;;;;;;;;;;;;;4.71;38.46;103005.34;5055176;28;19921;-83
2023/02/07 09:11:09;;;;;;;;;;;;;;;4.03;39.60;103005.16;5048793;28;19917;-82
2023/02/07 09:14:01;;;;;;;;;;;;;;;3.66;40.97;103004.06;5037361;28;19917;-82
2023/02/07 09:16:52;;;;;;;;;;;;;;;4.27;38.56;102993.63;5041527;28;19917;-81
2023/02/07 09:19:44;;;;;;;;;;;;;;;4.17;39.24;102995.13;5041768;28;19933;-82
2023/02/07 09:23:16;;;;;;;;;;;;;;;3.90;38.88;102999.03;5043543;28;19916;-82
2023/02/07 09:25:46;;;;;;;;;;;;;;;3.49;39.02;102985.94;5046375;28;19917;-82
2023/02/07 09:28:38;;;;;;;;;;;;;;;3.77;39.06;102994.50;5049642;28;19921;-82
2023/02/07 09:31:27;;;;;;;;;;;;;;;3.80;39.29;102983.34;5041695;28;19917;-82
2023/02/07 09:34:16;;;;;;;;;;;;;;;3.81;40.01;102979.59;5042416;28;20397;-82
2023/02/07 09:37:08;;;;;;;;;;;;;;;3.24;39.21;102985.81;5051650;28;19917;-81
2023/02/07 09:39:58;;;;;;;;;;;;;;;3.44;39.24;102979.34;5045791;28;19921;-81
2023/02/07 09:42:57;;;;;;;;;;;;;;;3.55;40.33;102985.09;5036352;28;20294;-83
2023/02/07 09:45:53;;;;;;;;;;;;;;;3.43;40.69;102987.63;5042731;28;19917;-82
2023/02/07 09:48:47;;;;;;;;;;;;;;;3.74;40.39;102978.81;5044389;28;20504;-82
2023/02/07 09:51:40;;;;;;;;;;;;;;;3.87;39.82;102979.56;5053955;28;20305;-81
2023/02/07 09:54:34;;;;;;;;;;;;;;;3.80;40.34;102973.41;5040930;28;20301;-82
2023/02/07 09:57:43;;;;;;;;;;;;;;;3.59;40.60;102973.69;5042468;28;19917;-81
2023/02/07 10:00:36;;;;;;;;;;;;;;;3.74;39.67;102978.81;5038331;28;20382;-81
2023/02/07 10:03:28;;;;;;;;;;;;;;;3.62;40.86;102967.06;5040878;28;19917;-82
2023/02/07 10:06:23;;;;;;;;;;;;;;;3.51;40.28;102957.78;5039120;28;20393;-81
2023/02/07 10:09:14;;;;;;;;;;;;;;;3.71;40.98;102953.13;5036804;28;19925;-81
2023/02/07 10:12:10;;;;;;;;;;;;;;;3.85;39.84;102952.06;5035473;28;19917;-81
2023/02/07 10:15:05;;;;;;;;;;;;;;;3.98;39.95;102943.06;5039157;28;19917;-81
2023/02/07 10:18:00;;;;;;;;;;;;;;;4.06;40.56;102937.44;5042768;28;20000;-81
2023/02/07 10:20:57;;;;;;;;;;;;;;;4.08;39.74;102937.22;5038817;28;19921;-81
2023/02/07 10:23:56;;;;;;;;;;;;;;;3.99;39.93;102941.19;5042460;28;19921;-82
2023/02/07 10:26:50;;;;;;;;;;;;;;;4.24;40.12;102929.44;5039469;28;19917;-82
2023/02/07 10:29:56;;;;;;;;;;;;;;;4.35;40.04;102929.78;5031115;28;19917;-80
2023/02/07 10:32:45;;;;;;;;;;;;;;;4.49;40.43;102929.44;5044210;28;19920;-83
2023/02/07 10:35:38;;;;;;;;;;;;;;;4.90;40.63;102925.34;5043167;28;19917;-83
2023/02/07 10:38:46;;;;;;;;;;;;;;;4.84;41.15;102918.97;5043921;28;19921;-83
2023/02/07 10:41:39;;;;;;;;;;;;;;;4.90;40.87;102917.25;5041592;28;19920;-83
2023/02/07 10:44:31;;;;;;;;;;;;;;;5.00;39.66;102910.28;5040045;28;19918;-84
2023/02/07 10:47:24;;;;;;;;;;;;;;;4.87;40.90;102905.06;5046637;28;19917;-85
2023/02/07 10:50:24;;;;;;;;;;;;;;;4.90;40.57;102903.75;5052239;28;19917;-84
2023/02/07 10:53:33;;;;;;;;;;;;;;;4.87;40.78;102893.44;5054706;28;19925;-84
2023/02/07 10:56:28;;;;;;;;;;;;;;;5.29;40.09;102891.69;5049640;28;19924;-85
2023/02/07 11:03:23;;;;;;;;;;;;;;;5.26;39.79;102876.81;5041299;28;19925;-84
2023/02/07 11:06:15;;;;;;;;;;;;;;;5.52;39.00;102870.25;5044404;28;19921;-86
2023/02/07 11:09:26;;;;;;;;;;;;;;;5.40;40.13;102859.38;5041763;28;19917;-85
2023/02/07 11:12:24;;;;;;;;;;;;;;;5.42;39.88;102854.59;5049166;28;19925;-85
2023/02/07 11:15:19;;;;;;;;;;;;;;;5.48;38.98;102852.88;5039244;28;19917;-84
2023/02/07 11:18:24;;;;;;;;;;;;;;;5.78;38.98;102844.75;5033408;28;19917;-84
2023/02/07 11:21:28;;;;;;;;;;;;;;;5.54;38.04;102855.47;5023794;28;20386;-86
2023/02/07 11:24:20;;;;;;;;;;;;;;;5.54;37.45;102852.75;5021511;28;20306;-86
2023/02/07 11:27:20;;;;;;;;;;;;;;;5.78;38.44;102842.88;5034617;28;19917;-87
2023/02/07 11:30:16;;;;;;;;;;;;;;;5.51;38.74;102836.22;5031310;28;19921;-85
2023/02/07 11:33:14;;;;;;;;;;;;;;;5.30;38.81;102832.13;5038904;28;19925;-85
2023/02/07 11:36:05;;;;;;;;;;;;;;;5.74;39.64;102836.28;5049105;28;19925;-86
2023/02/07 11:39:01;;;;;;;;;;;;;;;5.81;38.57;102828.91;5043639;28;19917;-85
2023/02/07 11:41:59;;;;;;;;;;;;;;;5.74;39.15;102841.66;5043223;28;20420;-85
2023/02/07 11:44:51;;;;;;;;;;;;;;;5.79;39.77;102844.50;5039539;28;19916;-84
2023/02/07 11:47:44;;;;;;;;;;;;;;;5.75;38.29;102839.78;5045206;28;19917;-84
2023/02/07 11:50:43;;;;;;;;;;;;;;;6.19;38.55;102849.31;5044350;28;19917;-86
2023/02/07 11:53:36;;;;;;;;;;;;;;;6.02;38.30;102843.78;5045644;28;19921;-85
2023/02/07 11:56:34;;;;;;;;;;;;;;;5.87;38.78;102833.41;5047078;28;20321;-85
2023/02/07 11:59:27;;;;;;;;;;;;;;;5.91;39.43;102833.78;5044089;28;20298;-84
2023/02/07 12:02:29;;;;;;;;;;;;;;;5.94;40.36;102830.63;5042737;28;20394;-84
2023/02/07 12:05:23;;;;;;;;;;;;;;;6.14;39.19;102819.50;5038372;28;19917;-85
2023/02/07 12:08:23;;;;;;;;;;;;;;;6.26;38.66;102812.19;5035963;28;19917;-85
2023/02/07 12:11:18;;;;;;;;;;;;;;;6.16;39.85;102818.19;5034292;28;19921;-85
2023/02/07 12:14:18;;;;;;;;;;;;;;;5.78;39.96;102796.16;5040794;28;19917;-84
2023/02/07 12:17:10;;;;;;;;;;;;;;;6.12;40.27;102798.09;5045828;28;19917;-84
2023/02/07 12:20:07;;;;;;;;;;;;;;;5.74;40.12;102795.78;5035802;28;19920;-84
2023/02/07 12:23:08;;;;;;;;;;;;;;;6.18;39.25;102786.38;5027515;28;19918;-85
2023/02/07 12:25:58;;;;;;;;;;;;;;;6.48;39.84;102783.53;5024534;28;19918;-84
2023/02/07 12:28:50;;;;;;;;;;;;;;;6.70;39.52;102770.22;5005940;28;19917;-87
2023/02/07 12:31:46;;;;;;;;;;;;;;;6.54;39.63;102762.84;5030281;28;20294;-85
2023/02/07 12:34:42;;;;;;;;;;;;;;;6.77;40.37;102754.66;5033916;28;19917;-83
2023/02/07 12:37:34;;;;;;;;;;;;;;;6.78;39.75;102750.91;5048825;28;19916;-81
2023/02/07 12:40:33;;;;;;;;;;;;;;;6.78;40.38;102753.63;5042075;28;19929;-81
2023/02/07 12:43:29;;;;;;;;;;;;;;;7.02;38.50;102741.66;5038456;28;19921;-81
2023/02/07 12:46:21;;;;;;;;;;;;;;;6.56;40.06;102752.59;5033323;28;19917;-81
2023/02/07 12:49:17;;;;;;;;;;;;;;;6.71;39.96;102752.91;5040932;28;19917;-81
2023/02/07 12:52:19;;;;;;;;;;;;;;;7.09;40.52;102738.81;5045480;28;19916;-81
2023/02/07 12:55:17;;;;;;;;;;;;;;;6.64;40.12;102736.03;5042305;28;19917;-82
2023/02/07 12:58:22;;;;;;;;;;;;;;;6.84;39.60;102731.84;5049028;28;19917;-81
2023/02/07 13:01:15;;;;;;;;;;;;;;;7.11;39.36;102737.47;5050798;28;19925;-81
2023/02/07 13:04:23;;;;;;;;;;;;;;;7.06;39.28;102731.19;5040163;28;19917;-81
2023/02/07 13:07:16;;;;;;;;;;;;;;;7.22;39.85;102744.72;5021380;28;19918;-84
2023/02/07 13:10:35;;;;;;;;;;;;;;;7.16;39.83;102734.09;5040647;28;19917;-83
2023/02/07 13:13:29;;;;;;;;;;;;;;;7.48;38.94;102734.34;5039362;28;20390;-82
2023/02/07 13:16:22;;;;;;;;;;;;;;;7.64;38.60;102726.25;5035620;28;19918;-82
2023/02/07 13:19:17;;;;;;;;;;;;;;;8.16;36.89;102731.38;5051704;28;19917;-81
2023/02/07 13:22:10;;;;;;;;;;;;;;;9.38;35.28;102723.63;5040785;28;19917;-80
2023/02/07 13:25:03;;;;;;;;;;;;;;;10.13;33.15;102724.44;5042050;28;19917;-80
2023/02/07 13:27:56;;;;;;;;;;;;;;;12.67;30.17;102726.34;5046903;28;19921;-85
2023/02/07 13:30:47;;;;;;;;;;;;;;;11.06;31.81;102720.78;5041950;28;19925;-81
2023/02/07 13:33:40;;;;;;;;;;;;;;;10.59;32.62;102722.81;5046749;28;19917;-80
2023/02/07 13:36:43;;;;;;;;;;;;;;;11.28;31.08;102720.53;5045824;28;19917;-80
2023/02/07 13:39:54;;;;;;;;;;;;;;;13.57;28.25;102711.28;5051348;28;19925;-83
2023/02/07 13:42:52;;;;;;;;;;;;;;;14.37;27.22;102705.34;5053892;28;19917;-82
2023/02/07 13:46:00;;;;;;;;;;;;;;;15.19;25.64;102698.44;5043676;28;19917;-83
2023/02/07 13:49:00;;;;;;;;;;;;;;;14.35;26.46;102700.13;5046152;28;19916;-83
2023/02/07 13:51:59;;;;;;;;;;;;;;;15.75;24.54;102694.78;5043644;28;19917;-83
2023/02/07 13:55:01;;;;;;;;;;;;;;;14.33;26.25;102685.91;5046440;28;19917;-83
2023/02/07 14:00:57;;;;;;;;;;;;;;;16.16;23.92;102684.69;5046091;28;19921;-82
2023/02/07 14:04:19;;;;;;;;;;;;;;;13.19;27.29;102673.91;5048755;28;19917;-83
2023/02/07 14:07:20;;;;;;;;;;;;;;;13.00;27.99;102668.28;4991022;28;19918;-83
2023/02/07 14:10:30;;;;;;;;;;;;;;;12.90;28.12;102667.53;5036866;28;19917;-83
2023/02/07 14:13:25;;;;;;;;;;;;;;;14.26;26.75;102666.28;5041878;28;20385;-83
2023/02/07 14:16:34;;;;;;;;;;;;;;;14.53;25.95;102669.25;5042521;28;19917;-84
2023/02/07 14:19:42;;;;;;;;;;;;;;;14.97;25.58;102665.34;5049294;28;19916;-84
2023/02/07 14:22:49;;;;;;;;;;;;;;;11.29;29.69;102656.00;5056231;28;19917;-84
2023/02/07 14:25:43;;;;;;;;;;;;;;;13.45;27.23;102653.47;5054749;28;19917;-84
2023/02/07 14:28:37;;;;;;;;;;;;;;;13.96;27.40;102661.19;5045021;28;19921;-85
2023/02/07 14:31:29;;;;;;;;;;;;;;;13.06;27.74;102655.38;5040832;28;19917;-85
2023/02/07 14:34:24;;;;;;;;;;;;;;;13.08;27.95;102656.75;5045730;28;19917;-84
2023/02/07 14:37:34;;;;;;;;;;;;;;;12.10;28.90;102653.16;5042374;28;19917;-84
2023/02/07 14:40:34;;;;;;;;;;;;;;;12.51;28.89;102657.38;5042011;28;20722;-85
2023/02/07 14:43:31;;;;;;;;;;;;;;;12.94;27.21;102660.41;5054347;28;19916;-84
2023/02/07 14:46:31;;;;;;;;;;;;;;;12.33;28.90;102649.81;5045683;28;19920;-85
2023/02/07 14:49:44;;;;;;;;;;;;;;;14.37;25.90;102656.88;5049381;28;20373;-89
2023/02/07 14:52:36;;;;;;;;;;;;;;;14.08;26.69;102656.09;5038807;28;19917;-84
2023/02/07 14:55:30;;;;;;;;;;;;;;;14.73;25.55;102653.66;5041602;28;19917;-84
2023/02/07 14:58:25;;;;;;;;;;;;;;;10.12;31.57;102658.38;5039358;28;19917;-84
2023/02/07 15:01:18;;;;;;;;;;;;;;;10.55;32.55;102645.53;5042606;28;19921;-84
2023/02/07 15:04:09;;;;;;;;;;;;;;;9.68;34.50;102649.72;5044155;28;19936;-83
2023/02/07 15:07:01;;;;;;;;;;;;;;;10.87;31.88;102643.41;5044764;28;19917;-84
2023/02/07 15:09:51;;;;;;;;;;;;;;;9.67;33.91;102631.78;5037974;28;20397;-84
2023/02/07 15:12:42;;;;;;;;;;;;;;;8.66;36.01;102632.81;5043931;28;19917;-84